sensor_id;sensor_type;location;lat;lon;timestamp;P1;durP1;ratioP1;P2;durP2;ratioP2
2011;SDS011;1009;51.436;6.972;2023-01-31T00:01:19;33.27;;;7.63;;
2011;SDS011;1009;51.436;6.972;2023-01-31T00:03:51;17.90;;;7.40;;
2011;SDS011;1009;51.436;6.972;2023-01-31T00:06:19;24.73;;;7.63;;
2011;SDS011;1009;51.436;6.972;2023-01-31T00:08:47;18.63;;;7.03;;
2011;SDS011;1009;51.436;6.972;2023-01-31T00:11:17;25.87;;;7.47;;
2011;SDS011;1009;51.436;6.972;2023-01-31T00:13:45;23.37;;;7.17;;
2011;SDS011;1009;51.436;6.972;2023-01-31T00:16:15;28.80;;;7.20;;
2011;SDS011;1009;51.436;6.972;2023-01-31T00:18:44;20.50;;;6.93;;
2011;SDS011;1009;51.436;6.972;2023-01-31T00:21:11;20.33;;;6.77;;
2011;SDS011;1009;51.436;6.972;2023-01-31T00:23:40;33.70;;;7.83;;
2011;SDS011;1009;51.436;6.972;2023-01-31T00:26:09;22.33;;;8.43;;
2011;SDS011;1009;51.436;6.972;2023-01-31T00:28:37;23.23;;;6.87;;
2011;SDS011;1009;51.436;6.972;2023-01-31T00:31:04;27.33;;;7.33;;
2011;SDS011;1009;51.436;6.972;2023-01-31T00:33:31;18.20;;;6.67;;
2011;SDS011;1009;51.436;6.972;2023-01-31T00:36:03;21.70;;;7.43;;
2011;SDS011;1009;51.436;6.972;2023-01-31T00:38:30;18.20;;;6.73;;
2011;SDS011;1009;51.436;6.972;2023-01-31T00:40:58;25.23;;;6.70;;
2011;SDS011;1009;51.436;6.972;2023-01-31T00:43:28;19.70;;;6.70;;
2011;SDS011;1009;51.436;6.972;2023-01-31T00:45:55;25.43;;;6.60;;
2011;SDS011;1009;51.436;6.972;2023-01-31T00:48:22;20.57;;;6.57;;
2011;SDS011;1009;51.436;6.972;2023-01-31T00:50:49;27.43;;;7.37;;
2011;SDS011;1009;51.436;6.972;2023-01-31T00:53:17;26.00;;;6.83;;
2011;SDS011;1009;51.436;6.972;2023-01-31T00:55:50;29.93;;;6.50;;
2011;SDS011;1009;51.436;6.972;2023-01-31T00:58:18;18.03;;;7.90;;
2011;SDS011;1009;51.436;6.972;2023-01-31T01:00:45;26.43;;;7.17;;
2011;SDS011;1009;51.436;6.972;2023-01-31T01:03:12;23.53;;;7.20;;
2011;SDS011;1009;51.436;6.972;2023-01-31T01:05:39;19.10;;;6.87;;
2011;SDS011;1009;51.436;6.972;2023-01-31T01:08:06;25.57;;;8.03;;
2011;SDS011;1009;51.436;6.972;2023-01-31T01:10:35;22.07;;;8.47;;
2011;SDS011;1009;51.436;6.972;2023-01-31T01:13:02;30.13;;;7.10;;
2011;SDS011;1009;51.436;6.972;2023-01-31T01:15:30;29.53;;;8.47;;
2011;SDS011;1009;51.436;6.972;2023-01-31T01:17:57;23.53;;;8.43;;
2011;SDS011;1009;51.436;6.972;2023-01-31T01:20:23;27.17;;;8.37;;
2011;SDS011;1009;51.436;6.972;2023-01-31T01:22:50;23.13;;;7.60;;
2011;SDS011;1009;51.436;6.972;2023-01-31T01:25:17;20.97;;;7.70;;
2011;SDS011;1009;51.436;6.972;2023-01-31T01:27:45;32.60;;;9.10;;
2011;SDS011;1009;51.436;6.972;2023-01-31T01:30:12;24.23;;;7.33;;
2011;SDS011;1009;51.436;6.972;2023-01-31T01:32:39;32.10;;;7.37;;
2011;SDS011;1009;51.436;6.972;2023-01-31T01:35:08;23.27;;;7.23;;
2011;SDS011;1009;51.436;6.972;2023-01-31T01:37:35;30.50;;;7.60;;
2011;SDS011;1009;51.436;6.972;2023-01-31T01:40:02;26.83;;;7.13;;
2011;SDS011;1009;51.436;6.972;2023-01-31T01:42:32;19.00;;;6.70;;
2011;SDS011;1009;51.436;6.972;2023-01-31T01:45:01;20.10;;;6.67;;
2011;SDS011;1009;51.436;6.972;2023-01-31T01:47:41;26.80;;;8.03;;
2011;SDS011;1009;51.436;6.972;2023-01-31T01:50:11;27.63;;;7.23;;
2011;SDS011;1009;51.436;6.972;2023-01-31T01:52:43;30.23;;;7.77;;
2011;SDS011;1009;51.436;6.972;2023-01-31T01:55:14;16.30;;;6.47;;
2011;SDS011;1009;51.436;6.972;2023-01-31T01:57:46;29.90;;;7.93;;
2011;SDS011;1009;51.436;6.972;2023-01-31T02:00:19;23.43;;;8.50;;
2011;SDS011;1009;51.436;6.972;2023-01-31T02:02:51;17.03;;;6.60;;
2011;SDS011;1009;51.436;6.972;2023-01-31T02:05:22;24.40;;;7.00;;
2011;SDS011;1009;51.436;6.972;2023-01-31T02:07:52;25.83;;;7.07;;
2011;SDS011;1009;51.436;6.972;2023-01-31T02:10:21;23.97;;;8.07;;
2011;SDS011;1009;51.436;6.972;2023-01-31T02:12:57;28.57;;;7.30;;
2011;SDS011;1009;51.436;6.972;2023-01-31T02:15:25;28.47;;;8.33;;
2011;SDS011;1009;51.436;6.972;2023-01-31T02:17:52;30.33;;;7.70;;
2011;SDS011;1009;51.436;6.972;2023-01-31T02:20:29;25.97;;;7.80;;
2011;SDS011;1009;51.436;6.972;2023-01-31T02:23:29;20.43;;;6.80;;
2011;SDS011;1009;51.436;6.972;2023-01-31T02:26:26;24.70;;;7.43;;
2011;SDS011;1009;51.436;6.972;2023-01-31T02:29:22;21.27;;;7.47;;
2011;SDS011;1009;51.436;6.972;2023-01-31T02:35:07;22.17;;;7.50;;
2011;SDS011;1009;51.436;6.972;2023-01-31T02:37:38;21.00;;;7.30;;
2011;SDS011;1009;51.436;6.972;2023-01-31T02:40:14;25.43;;;8.00;;
2011;SDS011;1009;51.436;6.972;2023-01-31T02:42:49;24.53;;;8.53;;
2011;SDS011;1009;51.436;6.972;2023-01-31T02:45:24;19.00;;;7.77;;
2011;SDS011;1009;51.436;6.972;2023-01-31T02:48:02;22.60;;;7.13;;
2011;SDS011;1009;51.436;6.972;2023-01-31T02:50:35;20.23;;;6.60;;
2011;SDS011;1009;51.436;6.972;2023-01-31T02:53:07;19.97;;;6.00;;
2011;SDS011;1009;51.436;6.972;2023-01-31T02:55:38;19.30;;;6.53;;
2011;SDS011;1009;51.436;6.972;2023-01-31T02:58:27;22.37;;;6.67;;
2011;SDS011;1009;51.436;6.972;2023-01-31T03:00:59;26.43;;;7.47;;
2011;SDS011;1009;51.436;6.972;2023-01-31T03:03:30;24.13;;;7.57;;
2011;SDS011;1009;51.436;6.972;2023-01-31T03:09:10;20.90;;;6.83;;
2011;SDS011;1009;51.436;6.972;2023-01-31T03:11:47;21.70;;;7.17;;
2011;SDS011;1009;51.436;6.972;2023-01-31T03:14:20;17.90;;;6.33;;
2011;SDS011;1009;51.436;6.972;2023-01-31T03:16:53;18.33;;;6.23;;
2011;SDS011;1009;51.436;6.972;2023-01-31T03:19:46;20.83;;;7.23;;
2011;SDS011;1009;51.436;6.972;2023-01-31T03:22:17;25.03;;;7.40;;
2011;SDS011;1009;51.436;6.972;2023-01-31T03:24:50;21.93;;;6.90;;
2011;SDS011;1009;51.436;6.972;2023-01-31T03:27:18;19.03;;;7.03;;
2011;SDS011;1009;51.436;6.972;2023-01-31T03:29:45;21.93;;;6.40;;
2011;SDS011;1009;51.436;6.972;2023-01-31T03:32:15;25.33;;;7.77;;
2011;SDS011;1009;51.436;6.972;2023-01-31T03:34:50;19.10;;;6.00;;
2011;SDS011;1009;51.436;6.972;2023-01-31T03:37:19;29.83;;;7.27;;
2011;SDS011;1009;51.436;6.972;2023-01-31T03:39:52;26.73;;;6.93;;
2011;SDS011;1009;51.436;6.972;2023-01-31T03:42:22;19.27;;;5.87;;
2011;SDS011;1009;51.436;6.972;2023-01-31T03:44:54;21.70;;;7.03;;
2011;SDS011;1009;51.436;6.972;2023-01-31T03:47:26;20.57;;;6.70;;
2011;SDS011;1009;51.436;6.972;2023-01-31T03:49:58;23.07;;;6.83;;
2011;SDS011;1009;51.436;6.972;2023-01-31T03:52:29;23.37;;;7.63;;
2011;SDS011;1009;51.436;6.972;2023-01-31T03:55:00;21.17;;;6.47;;
2011;SDS011;1009;51.436;6.972;2023-01-31T03:57:32;24.13;;;6.63;;
2011;SDS011;1009;51.436;6.972;2023-01-31T04:00:04;22.73;;;7.37;;
2011;SDS011;1009;51.436;6.972;2023-01-31T04:02:36;33.00;;;8.63;;
2011;SDS011;1009;51.436;6.972;2023-01-31T04:05:07;23.33;;;8.27;;
2011;SDS011;1009;51.436;6.972;2023-01-31T04:07:36;26.00;;;7.70;;
2011;SDS011;1009;51.436;6.972;2023-01-31T04:10:03;26.30;;;7.57;;
2011;SDS011;1009;51.436;6.972;2023-01-31T04:12:36;27.07;;;7.97;;
2011;SDS011;1009;51.436;6.972;2023-01-31T04:15:03;20.67;;;8.20;;
2011;SDS011;1009;51.436;6.972;2023-01-31T04:17:31;24.17;;;9.20;;
2011;SDS011;1009;51.436;6.972;2023-01-31T04:19:58;27.97;;;8.17;;
2011;SDS011;1009;51.436;6.972;2023-01-31T04:22:26;19.50;;;7.50;;
2011;SDS011;1009;51.436;6.972;2023-01-31T04:24:56;21.63;;;8.73;;
2011;SDS011;1009;51.436;6.972;2023-01-31T04:27:23;35.87;;;10.17;;
2011;SDS011;1009;51.436;6.972;2023-01-31T04:29:50;27.70;;;9.50;;
2011;SDS011;1009;51.436;6.972;2023-01-31T04:32:19;24.53;;;9.20;;
2011;SDS011;1009;51.436;6.972;2023-01-31T04:34:46;18.50;;;9.27;;
2011;SDS011;1009;51.436;6.972;2023-01-31T04:37:13;25.43;;;10.10;;
2011;SDS011;1009;51.436;6.972;2023-01-31T04:39:41;27.07;;;9.80;;
2011;SDS011;1009;51.436;6.972;2023-01-31T04:42:07;25.73;;;10.10;;
2011;SDS011;1009;51.436;6.972;2023-01-31T04:44:34;26.73;;;10.43;;
2011;SDS011;1009;51.436;6.972;2023-01-31T04:47:01;32.03;;;10.77;;
2011;SDS011;1009;51.436;6.972;2023-01-31T04:49:27;29.50;;;10.63;;
2011;SDS011;1009;51.436;6.972;2023-01-31T04:51:54;20.63;;;10.10;;
2011;SDS011;1009;51.436;6.972;2023-01-31T04:54:21;25.80;;;10.37;;
2011;SDS011;1009;51.436;6.972;2023-01-31T04:56:49;20.30;;;9.87;;
2011;SDS011;1009;51.436;6.972;2023-01-31T04:59:16;29.67;;;11.83;;
2011;SDS011;1009;51.436;6.972;2023-01-31T05:01:42;22.30;;;11.10;;
2011;SDS011;1009;51.436;6.972;2023-01-31T05:04:09;31.13;;;11.83;;
2011;SDS011;1009;51.436;6.972;2023-01-31T05:06:36;28.10;;;11.47;;
2011;SDS011;1009;51.436;6.972;2023-01-31T05:09:03;23.70;;;11.00;;
2011;SDS011;1009;51.436;6.972;2023-01-31T05:11:30;31.17;;;10.97;;
2011;SDS011;1009;51.436;6.972;2023-01-31T05:13:58;32.07;;;11.33;;
2011;SDS011;1009;51.436;6.972;2023-01-31T05:16:27;28.73;;;11.30;;
2011;SDS011;1009;51.436;6.972;2023-01-31T05:18:54;23.40;;;10.70;;
2011;SDS011;1009;51.436;6.972;2023-01-31T05:21:21;26.47;;;11.13;;
2011;SDS011;1009;51.436;6.972;2023-01-31T05:23:47;32.43;;;12.43;;
2011;SDS011;1009;51.436;6.972;2023-01-31T05:26:14;27.73;;;11.40;;
2011;SDS011;1009;51.436;6.972;2023-01-31T05:28:41;24.00;;;11.60;;
2011;SDS011;1009;51.436;6.972;2023-01-31T05:31:11;27.23;;;12.00;;
2011;SDS011;1009;51.436;6.972;2023-01-31T05:33:38;21.60;;;12.33;;
2011;SDS011;1009;51.436;6.972;2023-01-31T05:36:05;27.80;;;13.97;;
2011;SDS011;1009;51.436;6.972;2023-01-31T05:38:32;29.20;;;13.00;;
2011;SDS011;1009;51.436;6.972;2023-01-31T05:40:59;37.73;;;15.60;;
2011;SDS011;1009;51.436;6.972;2023-01-31T05:43:26;30.80;;;14.67;;
2011;SDS011;1009;51.436;6.972;2023-01-31T05:45:52;34.00;;;15.23;;
2011;SDS011;1009;51.436;6.972;2023-01-31T05:48:20;35.57;;;14.30;;
2011;SDS011;1009;51.436;6.972;2023-01-31T05:50:47;29.17;;;13.00;;
2011;SDS011;1009;51.436;6.972;2023-01-31T05:53:17;27.43;;;14.13;;
2011;SDS011;1009;51.436;6.972;2023-01-31T05:55:46;28.17;;;13.43;;
2011;SDS011;1009;51.436;6.972;2023-01-31T05:58:14;31.83;;;14.50;;
2011;SDS011;1009;51.436;6.972;2023-01-31T06:00:40;31.33;;;14.43;;
2011;SDS011;1009;51.436;6.972;2023-01-31T06:03:08;24.40;;;12.80;;
2011;SDS011;1009;51.436;6.972;2023-01-31T06:05:36;28.83;;;14.50;;
2011;SDS011;1009;51.436;6.972;2023-01-31T06:08:04;30.77;;;13.83;;
2011;SDS011;1009;51.436;6.972;2023-01-31T06:10:31;27.97;;;13.50;;
2011;SDS011;1009;51.436;6.972;2023-01-31T06:12:57;32.10;;;15.27;;
2011;SDS011;1009;51.436;6.972;2023-01-31T06:15:24;33.03;;;14.40;;
2011;SDS011;1009;51.436;6.972;2023-01-31T06:17:51;32.70;;;14.17;;
2011;SDS011;1009;51.436;6.972;2023-01-31T06:20:17;30.67;;;14.27;;
2011;SDS011;1009;51.436;6.972;2023-01-31T06:22:46;40.23;;;15.90;;
2011;SDS011;1009;51.436;6.972;2023-01-31T06:25:12;30.67;;;14.73;;
2011;SDS011;1009;51.436;6.972;2023-01-31T06:27:39;23.93;;;15.50;;
2011;SDS011;1009;51.436;6.972;2023-01-31T06:30:06;29.30;;;14.67;;
2011;SDS011;1009;51.436;6.972;2023-01-31T06:32:34;29.40;;;14.50;;
2011;SDS011;1009;51.436;6.972;2023-01-31T06:35:01;32.87;;;14.97;;
2011;SDS011;1009;51.436;6.972;2023-01-31T06:37:28;31.80;;;14.53;;
2011;SDS011;1009;51.436;6.972;2023-01-31T06:39:57;32.07;;;13.70;;
2011;SDS011;1009;51.436;6.972;2023-01-31T06:42:24;26.10;;;13.90;;
2011;SDS011;1009;51.436;6.972;2023-01-31T06:44:50;37.53;;;16.03;;
2011;SDS011;1009;51.436;6.972;2023-01-31T06:47:17;29.50;;;14.73;;
2011;SDS011;1009;51.436;6.972;2023-01-31T06:49:47;30.90;;;14.27;;
2011;SDS011;1009;51.436;6.972;2023-01-31T06:52:16;33.23;;;14.97;;
2011;SDS011;1009;51.436;6.972;2023-01-31T06:54:43;37.33;;;15.00;;
2011;SDS011;1009;51.436;6.972;2023-01-31T06:57:14;28.53;;;14.37;;
2011;SDS011;1009;51.436;6.972;2023-01-31T06:59:47;26.43;;;13.43;;
2011;SDS011;1009;51.436;6.972;2023-01-31T07:02:13;30.03;;;15.00;;
2011;SDS011;1009;51.436;6.972;2023-01-31T07:04:40;32.10;;;14.80;;
2011;SDS011;1009;51.436;6.972;2023-01-31T07:07:10;30.10;;;14.93;;
2011;SDS011;1009;51.436;6.972;2023-01-31T07:09:37;31.50;;;13.50;;
2011;SDS011;1009;51.436;6.972;2023-01-31T07:12:04;34.70;;;14.53;;
2011;SDS011;1009;51.436;6.972;2023-01-31T07:14:32;25.57;;;13.53;;
2011;SDS011;1009;51.436;6.972;2023-01-31T07:16:58;32.90;;;13.73;;
2011;SDS011;1009;51.436;6.972;2023-01-31T07:19:28;33.80;;;15.27;;
2011;SDS011;1009;51.436;6.972;2023-01-31T07:21:55;29.03;;;13.50;;
2011;SDS011;1009;51.436;6.972;2023-01-31T07:24:21;35.23;;;12.80;;
2011;SDS011;1009;51.436;6.972;2023-01-31T07:26:51;32.27;;;12.53;;
2011;SDS011;1009;51.436;6.972;2023-01-31T07:29:18;26.97;;;12.30;;
2011;SDS011;1009;51.436;6.972;2023-01-31T07:31:49;34.60;;;11.60;;
2011;SDS011;1009;51.436;6.972;2023-01-31T07:34:16;26.50;;;11.90;;
2011;SDS011;1009;51.436;6.972;2023-01-31T07:36:43;27.37;;;12.97;;
2011;SDS011;1009;51.436;6.972;2023-01-31T07:39:09;34.23;;;11.80;;
2011;SDS011;1009;51.436;6.972;2023-01-31T07:41:37;26.93;;;13.13;;
2011;SDS011;1009;51.436;6.972;2023-01-31T07:44:04;29.47;;;10.93;;
2011;SDS011;1009;51.436;6.972;2023-01-31T07:46:32;23.93;;;12.37;;
2011;SDS011;1009;51.436;6.972;2023-01-31T07:49:00;25.53;;;11.10;;
2011;SDS011;1009;51.436;6.972;2023-01-31T07:51:28;22.80;;;11.10;;
2011;SDS011;1009;51.436;6.972;2023-01-31T07:53:55;24.73;;;11.90;;
2011;SDS011;1009;51.436;6.972;2023-01-31T07:56:21;30.10;;;11.50;;
2011;SDS011;1009;51.436;6.972;2023-01-31T07:58:49;26.33;;;10.63;;
2011;SDS011;1009;51.436;6.972;2023-01-31T08:01:17;27.87;;;10.03;;
2011;SDS011;1009;51.436;6.972;2023-01-31T08:04:04;24.43;;;11.33;;
2011;SDS011;1009;51.436;6.972;2023-01-31T08:06:31;32.10;;;11.17;;
2011;SDS011;1009;51.436;6.972;2023-01-31T08:08:59;22.00;;;9.53;;
2011;SDS011;1009;51.436;6.972;2023-01-31T08:11:26;29.20;;;12.10;;
2011;SDS011;1009;51.436;6.972;2023-01-31T08:13:56;22.80;;;10.57;;
2011;SDS011;1009;51.436;6.972;2023-01-31T08:16:22;23.70;;;10.17;;
2011;SDS011;1009;51.436;6.972;2023-01-31T08:18:50;27.67;;;10.47;;
2011;SDS011;1009;51.436;6.972;2023-01-31T08:21:18;26.50;;;10.17;;
2011;SDS011;1009;51.436;6.972;2023-01-31T08:23:45;20.53;;;9.90;;
2011;SDS011;1009;51.436;6.972;2023-01-31T08:26:13;24.87;;;9.60;;
2011;SDS011;1009;51.436;6.972;2023-01-31T08:28:41;23.90;;;10.20;;
2011;SDS011;1009;51.436;6.972;2023-01-31T08:31:10;28.27;;;10.60;;
2011;SDS011;1009;51.436;6.972;2023-01-31T08:33:39;23.13;;;9.10;;
2011;SDS011;1009;51.436;6.972;2023-01-31T08:36:06;24.17;;;8.80;;
2011;SDS011;1009;51.436;6.972;2023-01-31T08:38:35;24.73;;;9.27;;
2011;SDS011;1009;51.436;6.972;2023-01-31T08:41:02;23.50;;;9.50;;
2011;SDS011;1009;51.436;6.972;2023-01-31T08:43:29;20.27;;;8.27;;
2011;SDS011;1009;51.436;6.972;2023-01-31T08:45:56;17.50;;;8.57;;
2011;SDS011;1009;51.436;6.972;2023-01-31T08:48:23;29.60;;;9.80;;
2011;SDS011;1009;51.436;6.972;2023-01-31T08:50:50;20.90;;;8.70;;
2011;SDS011;1009;51.436;6.972;2023-01-31T08:53:17;26.33;;;10.03;;
2011;SDS011;1009;51.436;6.972;2023-01-31T08:55:45;27.23;;;9.27;;
2011;SDS011;1009;51.436;6.972;2023-01-31T08:58:11;27.80;;;10.67;;
2011;SDS011;1009;51.436;6.972;2023-01-31T09:00:38;26.10;;;9.40;;
2011;SDS011;1009;51.436;6.972;2023-01-31T09:03:05;30.17;;;9.77;;
2011;SDS011;1009;51.436;6.972;2023-01-31T09:05:31;25.67;;;10.43;;
2011;SDS011;1009;51.436;6.972;2023-01-31T09:07:58;28.50;;;9.60;;
2011;SDS011;1009;51.436;6.972;2023-01-31T09:10:25;24.43;;;10.03;;
2011;SDS011;1009;51.436;6.972;2023-01-31T09:12:53;22.50;;;9.67;;
2011;SDS011;1009;51.436;6.972;2023-01-31T09:15:19;26.50;;;10.30;;
2011;SDS011;1009;51.436;6.972;2023-01-31T09:17:46;25.80;;;9.47;;
2011;SDS011;1009;51.436;6.972;2023-01-31T09:20:13;27.03;;;9.10;;
2011;SDS011;1009;51.436;6.972;2023-01-31T09:22:39;20.30;;;8.23;;
2011;SDS011;1009;51.436;6.972;2023-01-31T09:25:07;21.03;;;8.50;;
2011;SDS011;1009;51.436;6.972;2023-01-31T09:27:34;21.63;;;7.80;;
2011;SDS011;1009;51.436;6.972;2023-01-31T09:30:05;17.10;;;8.83;;
2011;SDS011;1009;51.436;6.972;2023-01-31T09:32:34;20.60;;;8.20;;
2011;SDS011;1009;51.436;6.972;2023-01-31T09:35:01;22.63;;;8.80;;
2011;SDS011;1009;51.436;6.972;2023-01-31T09:37:28;23.77;;;7.87;;
2011;SDS011;1009;51.436;6.972;2023-01-31T09:39:55;23.00;;;7.90;;
2011;SDS011;1009;51.436;6.972;2023-01-31T09:42:24;24.00;;;7.73;;
2011;SDS011;1009;51.436;6.972;2023-01-31T09:44:57;19.77;;;7.03;;
2011;SDS011;1009;51.436;6.972;2023-01-31T09:47:32;17.10;;;7.73;;
2011;SDS011;1009;51.436;6.972;2023-01-31T09:50:02;17.20;;;7.33;;
2011;SDS011;1009;51.436;6.972;2023-01-31T09:52:31;22.40;;;7.23;;
2011;SDS011;1009;51.436;6.972;2023-01-31T09:54:59;22.23;;;7.20;;
2011;SDS011;1009;51.436;6.972;2023-01-31T09:57:28;20.43;;;8.07;;
2011;SDS011;1009;51.436;6.972;2023-01-31T10:00:15;17.63;;;7.20;;
2011;SDS011;1009;51.436;6.972;2023-01-31T10:03:01;24.10;;;7.77;;
2011;SDS011;1009;51.436;6.972;2023-01-31T10:05:50;19.13;;;7.10;;
2011;SDS011;1009;51.436;6.972;2023-01-31T10:08:27;18.77;;;8.30;;
2011;SDS011;1009;51.436;6.972;2023-01-31T10:11:04;18.43;;;8.47;;
2011;SDS011;1009;51.436;6.972;2023-01-31T10:13:35;18.93;;;7.77;;
2011;SDS011;1009;51.436;6.972;2023-01-31T10:16:04;19.47;;;7.60;;
2011;SDS011;1009;51.436;6.972;2023-01-31T10:18:41;24.10;;;10.00;;
2011;SDS011;1009;51.436;6.972;2023-01-31T10:21:14;20.60;;;7.23;;
2011;SDS011;1009;51.436;6.972;2023-01-31T10:23:47;22.27;;;8.17;;
2011;SDS011;1009;51.436;6.972;2023-01-31T10:26:19;25.90;;;8.57;;
2011;SDS011;1009;51.436;6.972;2023-01-31T10:28:52;21.63;;;7.90;;
2011;SDS011;1009;51.436;6.972;2023-01-31T10:31:25;17.40;;;8.70;;
2011;SDS011;1009;51.436;6.972;2023-01-31T10:33:57;27.10;;;8.73;;
2011;SDS011;1009;51.436;6.972;2023-01-31T10:36:30;18.40;;;9.07;;
2011;SDS011;1009;51.436;6.972;2023-01-31T10:39:01;16.60;;;8.90;;
2011;SDS011;1009;51.436;6.972;2023-01-31T10:41:38;23.97;;;9.00;;
2011;SDS011;1009;51.436;6.972;2023-01-31T10:44:12;24.23;;;9.47;;
2011;SDS011;1009;51.436;6.972;2023-01-31T10:46:45;23.30;;;9.00;;
2011;SDS011;1009;51.436;6.972;2023-01-31T10:49:14;19.03;;;8.73;;
2011;SDS011;1009;51.436;6.972;2023-01-31T10:51:47;20.43;;;9.40;;
2011;SDS011;1009;51.436;6.972;2023-01-31T10:54:33;26.27;;;10.83;;
2011;SDS011;1009;51.436;6.972;2023-01-31T10:57:17;21.43;;;9.50;;
2011;SDS011;1009;51.436;6.972;2023-01-31T10:59:47;21.53;;;8.50;;
2011;SDS011;1009;51.436;6.972;2023-01-31T11:02:18;18.63;;;9.07;;
2011;SDS011;1009;51.436;6.972;2023-01-31T11:04:55;18.60;;;9.07;;
2011;SDS011;1009;51.436;6.972;2023-01-31T11:07:23;20.03;;;8.70;;
2011;SDS011;1009;51.436;6.972;2023-01-31T11:09:51;19.73;;;8.90;;
2011;SDS011;1009;51.436;6.972;2023-01-31T11:12:18;16.50;;;7.97;;
2011;SDS011;1009;51.436;6.972;2023-01-31T11:14:57;19.40;;;8.80;;
2011;SDS011;1009;51.436;6.972;2023-01-31T11:17:30;17.27;;;8.40;;
2011;SDS011;1009;51.436;6.972;2023-01-31T11:20:03;22.97;;;9.60;;
2011;SDS011;1009;51.436;6.972;2023-01-31T11:22:31;19.27;;;9.10;;
2011;SDS011;1009;51.436;6.972;2023-01-31T11:25:01;24.53;;;9.57;;
2011;SDS011;1009;51.436;6.972;2023-01-31T11:27:30;19.80;;;9.63;;
2011;SDS011;1009;51.436;6.972;2023-01-31T11:30:05;21.20;;;9.00;;
2011;SDS011;1009;51.436;6.972;2023-01-31T11:32:45;21.20;;;9.07;;
2011;SDS011;1009;51.436;6.972;2023-01-31T11:35:23;17.67;;;8.77;;
2011;SDS011;1009;51.436;6.972;2023-01-31T11:37:53;23.80;;;9.30;;
2011;SDS011;1009;51.436;6.972;2023-01-31T11:40:21;16.17;;;10.50;;
2011;SDS011;1009;51.436;6.972;2023-01-31T11:42:54;23.07;;;10.53;;
2011;SDS011;1009;51.436;6.972;2023-01-31T11:45:23;20.83;;;9.30;;
2011;SDS011;1009;51.436;6.972;2023-01-31T11:47:52;25.07;;;9.63;;
2011;SDS011;1009;51.436;6.972;2023-01-31T11:50:21;16.90;;;9.50;;
2011;SDS011;1009;51.436;6.972;2023-01-31T11:53:12;15.13;;;9.70;;
2011;SDS011;1009;51.436;6.972;2023-01-31T11:55:42;22.53;;;9.33;;
2011;SDS011;1009;51.436;6.972;2023-01-31T11:58:20;18.90;;;9.80;;
2011;SDS011;1009;51.436;6.972;2023-01-31T12:00:50;16.77;;;10.03;;
2011;SDS011;1009;51.436;6.972;2023-01-31T12:03:20;21.00;;;11.13;;
2011;SDS011;1009;51.436;6.972;2023-01-31T12:05:50;27.90;;;10.33;;
2011;SDS011;1009;51.436;6.972;2023-01-31T12:08:26;19.23;;;10.90;;
2011;SDS011;1009;51.436;6.972;2023-01-31T12:10:54;22.47;;;10.70;;
2011;SDS011;1009;51.436;6.972;2023-01-31T12:13:22;18.30;;;11.23;;
2011;SDS011;1009;51.436;6.972;2023-01-31T12:15:50;17.53;;;11.17;;
2011;SDS011;1009;51.436;6.972;2023-01-31T12:18:29;18.73;;;11.23;;
2011;SDS011;1009;51.436;6.972;2023-01-31T12:21:14;16.50;;;11.00;;
2011;SDS011;1009;51.436;6.972;2023-01-31T12:23:50;24.80;;;11.13;;
2011;SDS011;1009;51.436;6.972;2023-01-31T12:26:23;25.17;;;12.93;;
2011;SDS011;1009;51.436;6.972;2023-01-31T12:29:01;22.43;;;12.43;;
2011;SDS011;1009;51.436;6.972;2023-01-31T12:31:48;20.47;;;12.40;;
2011;SDS011;1009;51.436;6.972;2023-01-31T12:34:31;19.43;;;13.70;;
2011;SDS011;1009;51.436;6.972;2023-01-31T12:37:16;21.23;;;13.80;;
2011;SDS011;1009;51.436;6.972;2023-01-31T12:39:56;23.10;;;13.90;;
2011;SDS011;1009;51.436;6.972;2023-01-31T12:42:41;27.57;;;15.53;;
2011;SDS011;1009;51.436;6.972;2023-01-31T12:45:25;25.53;;;15.30;;
2011;SDS011;1009;51.436;6.972;2023-01-31T12:51:01;23.17;;;14.23;;
2011;SDS011;1009;51.436;6.972;2023-01-31T12:53:43;23.30;;;16.07;;
2011;SDS011;1009;51.436;6.972;2023-01-31T12:56:31;22.70;;;14.50;;
2011;SDS011;1009;51.436;6.972;2023-01-31T12:59:09;25.37;;;14.80;;
2011;SDS011;1009;51.436;6.972;2023-01-31T13:01:51;27.27;;;15.10;;
2011;SDS011;1009;51.436;6.972;2023-01-31T13:04:29;22.73;;;16.50;;
2011;SDS011;1009;51.436;6.972;2023-01-31T13:07:06;23.00;;;14.10;;
2011;SDS011;1009;51.436;6.972;2023-01-31T13:09:41;24.57;;;14.37;;
2011;SDS011;1009;51.436;6.972;2023-01-31T13:12:11;24.10;;;14.60;;
2011;SDS011;1009;51.436;6.972;2023-01-31T13:14:44;24.20;;;14.90;;
2011;SDS011;1009;51.436;6.972;2023-01-31T13:17:16;23.10;;;15.30;;
2011;SDS011;1009;51.436;6.972;2023-01-31T13:19:48;23.80;;;16.03;;
2011;SDS011;1009;51.436;6.972;2023-01-31T13:22:17;24.60;;;16.40;;
2011;SDS011;1009;51.436;6.972;2023-01-31T13:24:48;28.07;;;16.60;;
2011;SDS011;1009;51.436;6.972;2023-01-31T13:27:25;26.97;;;16.63;;
2011;SDS011;1009;51.436;6.972;2023-01-31T13:29:56;24.37;;;17.77;;
2011;SDS011;1009;51.436;6.972;2023-01-31T13:32:31;21.67;;;18.30;;
2011;SDS011;1009;51.436;6.972;2023-01-31T13:35:08;27.77;;;18.43;;
2011;SDS011;1009;51.436;6.972;2023-01-31T13:37:43;30.20;;;19.10;;
2011;SDS011;1009;51.436;6.972;2023-01-31T13:40:17;36.83;;;20.63;;
2011;SDS011;1009;51.436;6.972;2023-01-31T13:42:45;30.27;;;20.77;;
2011;SDS011;1009;51.436;6.972;2023-01-31T13:45:24;34.90;;;22.87;;
2011;SDS011;1009;51.436;6.972;2023-01-31T13:47:57;33.47;;;23.10;;
2011;SDS011;1009;51.436;6.972;2023-01-31T13:50:32;31.93;;;23.87;;
2011;SDS011;1009;51.436;6.972;2023-01-31T13:53:04;33.93;;;24.53;;
2011;SDS011;1009;51.436;6.972;2023-01-31T13:55:38;38.90;;;25.30;;
2011;SDS011;1009;51.436;6.972;2023-01-31T13:58:12;29.40;;;23.53;;
2011;SDS011;1009;51.436;6.972;2023-01-31T14:00:44;36.10;;;25.70;;
2011;SDS011;1009;51.436;6.972;2023-01-31T14:03:15;34.10;;;26.50;;
2011;SDS011;1009;51.436;6.972;2023-01-31T14:05:51;41.20;;;25.60;;
2011;SDS011;1009;51.436;6.972;2023-01-31T14:08:31;33.43;;;26.30;;
2011;SDS011;1009;51.436;6.972;2023-01-31T14:11:07;39.70;;;27.07;;
2011;SDS011;1009;51.436;6.972;2023-01-31T14:17:09;38.23;;;28.03;;
2011;SDS011;1009;51.436;6.972;2023-01-31T14:22:29;33.63;;;28.07;;
2011;SDS011;1009;51.436;6.972;2023-01-31T14:24:59;43.47;;;31.40;;
2011;SDS011;1009;51.436;6.972;2023-01-31T14:27:29;36.63;;;30.60;;
2011;SDS011;1009;51.436;6.972;2023-01-31T14:30:01;39.87;;;30.30;;
2011;SDS011;1009;51.436;6.972;2023-01-31T14:32:46;39.67;;;31.30;;
2011;SDS011;1009;51.436;6.972;2023-01-31T14:35:24;37.40;;;27.60;;
2011;SDS011;1009;51.436;6.972;2023-01-31T14:38:02;38.00;;;31.63;;
2011;SDS011;1009;51.436;6.972;2023-01-31T14:40:37;33.80;;;28.60;;
2011;SDS011;1009;51.436;6.972;2023-01-31T14:43:28;40.10;;;30.87;;
2011;SDS011;1009;51.436;6.972;2023-01-31T14:49:09;33.13;;;27.90;;
2011;SDS011;1009;51.436;6.972;2023-01-31T14:54:59;36.37;;;29.27;;
2011;SDS011;1009;51.436;6.972;2023-01-31T14:57:37;33.90;;;30.17;;
2011;SDS011;1009;51.436;6.972;2023-01-31T15:00:17;31.53;;;28.13;;
2011;SDS011;1009;51.436;6.972;2023-01-31T15:02:54;37.87;;;31.00;;
2011;SDS011;1009;51.436;6.972;2023-01-31T15:05:38;37.40;;;28.70;;
2011;SDS011;1009;51.436;6.972;2023-01-31T15:11:12;40.73;;;31.50;;
2011;SDS011;1009;51.436;6.972;2023-01-31T15:13:55;35.30;;;29.80;;
2011;SDS011;1009;51.436;6.972;2023-01-31T15:16:24;39.33;;;31.07;;
2011;SDS011;1009;51.436;6.972;2023-01-31T15:18:54;33.00;;;29.50;;
2011;SDS011;1009;51.436;6.972;2023-01-31T15:21:26;37.20;;;28.50;;
2011;SDS011;1009;51.436;6.972;2023-01-31T15:24:01;39.47;;;28.90;;
2011;SDS011;1009;51.436;6.972;2023-01-31T15:26:34;36.47;;;27.77;;
2011;SDS011;1009;51.436;6.972;2023-01-31T15:29:02;38.33;;;28.63;;
2011;SDS011;1009;51.436;6.972;2023-01-31T15:31:32;36.87;;;27.70;;
2011;SDS011;1009;51.436;6.972;2023-01-31T15:34:06;33.30;;;27.53;;
2011;SDS011;1009;51.436;6.972;2023-01-31T15:36:47;32.67;;;25.97;;
2011;SDS011;1009;51.436;6.972;2023-01-31T15:39:24;37.60;;;28.43;;
2011;SDS011;1009;51.436;6.972;2023-01-31T15:41:54;33.37;;;25.90;;
2011;SDS011;1009;51.436;6.972;2023-01-31T15:44:22;35.63;;;25.60;;